»·PEaware :: WAT380 KHLN-KBIL

WAT380 :: KHLN-KBIL

FLIGHT INFORMATION

Flight Status: Arrived
Operator:
Walker Air Transport
More flights by this operator :: More flights under this callsign
Pilot: Spencer M. (27733)
Aircraft: BEECH AIRCRAFT BARON
(BE58)
More flights by this aircraft type
Origin: KHLN Helena Regl
United States
Destination: KBIL Billings Logan Intl
United States
More flights between these airports :: More routes between these airports
Route: +STAKK4 BZN V365 LVM V2 BIL
File this flight plan on PilotEdge
Remarks:
Altitude:
(Current/Filed)
15,000ft
Speed:
(Current/Filed)
180kts
Departed: 18-Oct-20 08:09 AM
Arrived: 18-Oct-20 09:06 AM
Distance/Time
Traveled:
151nm/0:57
Distance/Time
To Go:
Arrived

Flight Plot

Page will automatically refresh every two minutes.

Flight plan parsing failed; only flown route is shown


Map Options




Map Legend


Flown Route
Filed Route
Departure Airport
Arrival Airport
Navaid (VOR, NDB)
Fix

Horizontal Profiles

Position Reports

Time Latitude Longitude Heading Altitude Ground
Speed
18-Oct-20 07:54 46.602693 -111.981978 357 3878ft 0kts
18-Oct-20 07:54 46.602693 -111.981978 356 3878ft 0kts
18-Oct-20 07:55 46.602693 -111.981978 356 3878ft 0kts
18-Oct-20 07:56 46.602693 -111.981978 356 3878ft 0kts
18-Oct-20 07:57 46.602693 -111.981978 357 3878ft 0kts
18-Oct-20 07:58 46.602693 -111.981978 357 3878ft 0kts
18-Oct-20 07:59 46.602693 -111.981978 356 3878ft 0kts
18-Oct-20 08:00 46.602693 -111.981978 356 3878ft 0kts
18-Oct-20 08:01 46.603226 -111.981994 358 3878ft 0kts
18-Oct-20 08:02 46.603655 -111.979826 88 3878ft 15kts
18-Oct-20 08:03 46.603097 -111.972208 95 3878ft 21kts
18-Oct-20 08:04 46.601941 -111.963718 75 3878ft 15kts
18-Oct-20 08:05 46.602128 -111.963308 37 3878ft 0kts
18-Oct-20 08:06 46.602128 -111.963308 37 3878ft 0kts
18-Oct-20 08:07 46.603121 -111.963720 284 3878ft 17kts
18-Oct-20 08:08 46.609357 -112.002761 283 4458ft 135kts
18-Oct-20 08:09 46.635466 -111.997579 95 5562ft 161kts
18-Oct-20 08:10 46.607782 -111.950377 119 6612ft 157kts
18-Oct-20 08:11 46.596148 -111.889205 103 7559ft 158kts
18-Oct-20 08:12 46.586469 -111.827288 104 8536ft 155kts
18-Oct-20 08:13 46.575839 -111.762435 105 9037ft 184kts
18-Oct-20 08:14 46.562750 -111.681382 104 9424ft 190kts
18-Oct-20 08:15 46.539844 -111.610127 172 9940ft 173kts
18-Oct-20 08:16 46.493281 -111.625577 182 10801ft 168kts
18-Oct-20 08:17 46.459403 -111.570905 124 11645ft 186kts
18-Oct-20 08:18 46.419068 -111.526424 169 12639ft 165kts
18-Oct-20 08:19 46.370680 -111.499044 168 13032ft 191kts
18-Oct-20 08:20 46.314421 -111.465873 166 13026ft 206kts
18-Oct-20 08:21 46.259197 -111.432768 167 13544ft 188kts
18-Oct-20 08:22 46.210222 -111.403943 169 14235ft 179kts
18-Oct-20 08:23 46.162040 -111.375802 169 14829ft 179kts
18-Oct-20 08:24 46.112570 -111.347168 169 15022ft 194kts
18-Oct-20 08:25 46.058814 -111.315744 169 14998ft 202kts
18-Oct-20 08:26 46.003728 -111.283522 169 14998ft 203kts
18-Oct-20 08:27 45.948777 -111.251533 168 14998ft 204kts
18-Oct-20 08:28 45.894255 -111.219876 168 14998ft 204kts
18-Oct-20 08:29 45.841574 -111.189350 168 14998ft 204kts
18-Oct-20 08:30 45.787693 -111.157284 158 14990ft 210kts
18-Oct-20 08:31 45.747571 -111.088742 136 14999ft 221kts
18-Oct-20 08:32 45.707340 -111.017210 135 15000ft 223kts
18-Oct-20 08:33 45.667264 -110.944500 135 15000ft 222kts
18-Oct-20 08:34 45.656054 -110.858838 81 15002ft 231kts
18-Oct-20 08:35 45.665700 -110.764304 81 15009ft 231kts
18-Oct-20 08:36 45.676681 -110.665695 80 15017ft 231kts
18-Oct-20 08:37 45.687945 -110.565590 80 15020ft 231kts
18-Oct-20 08:38 45.699135 -110.465352 80 15021ft 231kts
18-Oct-20 08:39 45.707249 -110.365630 85 15022ft 231kts
18-Oct-20 08:40 45.713365 -110.265346 85 14997ft 231kts
18-Oct-20 08:41 45.719838 -110.164403 85 14998ft 230kts
18-Oct-20 08:42 45.726177 -110.064538 85 14999ft 230kts
18-Oct-20 08:43 45.732355 -109.965836 85 15000ft 230kts
18-Oct-20 08:44 45.738511 -109.866030 85 15000ft 231kts
18-Oct-20 08:45 45.744555 -109.766679 85 15001ft 231kts
18-Oct-20 08:46 45.750591 -109.666001 85 15003ft 231kts
18-Oct-20 08:47 45.756031 -109.574113 85 15030ft 231kts
18-Oct-20 08:48 45.761756 -109.482540 80 15056ft 231kts
18-Oct-20 08:49 45.777056 -109.388636 74 13877ft 217kts
18-Oct-20 08:50 45.792580 -109.304289 76 12293ft 190kts
18-Oct-20 08:51 45.806168 -109.226709 71 10626ft 175kts
18-Oct-20 08:52 45.818173 -109.156429 69 9039ft 159kts
18-Oct-20 08:53 45.828505 -109.096821 67 8051ft 128kts
18-Oct-20 08:54 45.838162 -109.039207 71 8019ft 149kts
18-Oct-20 08:55 45.849220 -108.973394 71 8017ft 153kts
18-Oct-20 08:56 45.859436 -108.913558 71 7735ft 150kts
18-Oct-20 08:57 45.869085 -108.858262 71 6709ft 134kts
18-Oct-20 08:58 45.878638 -108.811130 73 6032ft 117kts
18-Oct-20 08:59 45.867750 -108.756619 108 5714ft 152kts
18-Oct-20 09:00 45.853849 -108.703565 108 5307ft 127kts
18-Oct-20 09:01 45.841572 -108.657889 108 5202ft 133kts
18-Oct-20 09:02 45.827518 -108.613245 115 4539ft 96kts
18-Oct-20 09:03 45.815989 -108.582673 108 4177ft 89kts
18-Oct-20 09:04 45.810787 -108.547723 110 3654ft 77kts
18-Oct-20 09:05 45.806582 -108.537681 202 3654ft 12kts
18-Oct-20 09:06 45.804610 -108.535507 163 3654ft 12kts

Navigation Log

Ident Type
Flight plan parsing failed, navigation log unavailable